createdAt,value
2023-03-04T00:04:33.290Z,3.33
2023-03-04T00:09:36.403Z,2.93
2023-03-04T00:14:39.421Z,3.13
2023-03-04T00:19:43.754Z,3.30
2023-03-04T00:24:46.715Z,4.10
2023-03-04T00:29:52.186Z,2.87
2023-03-04T00:34:56.607Z,3.03
2023-03-04T00:39:59.740Z,3.53
2023-03-04T00:45:05.173Z,2.93
2023-03-04T00:50:11.314Z,2.90
2023-03-04T00:55:14.568Z,3.00
2023-03-04T01:00:18.420Z,3.33
2023-03-04T01:05:22.911Z,2.97
2023-03-04T01:10:26.155Z,3.30
2023-03-04T01:15:29.316Z,3.20
2023-03-04T01:20:33.761Z,3.37
2023-03-04T01:25:36.877Z,3.73
2023-03-04T01:30:39.942Z,2.87
2023-03-04T01:35:44.505Z,3.00
2023-03-04T01:40:49.272Z,2.70
2023-03-04T01:45:54.314Z,2.57
2023-03-04T01:51:03.012Z,3.50
2023-03-04T01:56:13.793Z,3.10
2023-03-04T02:01:16.976Z,3.23
2023-03-04T02:06:21.393Z,2.90
2023-03-04T02:11:25.633Z,3.23
2023-03-04T02:16:28.903Z,2.63
2023-03-04T02:21:35.135Z,2.67
2023-03-04T02:26:41.667Z,2.90
2023-03-04T02:31:46.683Z,3.27
2023-03-04T02:36:52.275Z,3.20
2023-03-04T02:41:57.830Z,3.93
2023-03-04T02:47:06.688Z,2.97
2023-03-04T02:52:14.845Z,2.40
2023-03-04T02:57:19.549Z,2.37
2023-03-04T03:02:28.482Z,2.40
2023-03-04T03:07:34.848Z,2.63
2023-03-04T03:12:39.882Z,2.60
2023-03-04T03:17:43.080Z,2.30
2023-03-04T03:22:46.294Z,3.20
2023-03-04T03:27:50.760Z,2.40
2023-03-04T03:32:54.236Z,2.90
2023-03-04T03:37:57.400Z,2.50
2023-03-04T03:43:01.895Z,2.47
2023-03-04T03:48:07.741Z,2.47
2023-03-04T03:53:10.789Z,1.90
2023-03-04T03:58:15.428Z,3.67
2023-03-04T04:03:18.854Z,2.17
2023-03-04T04:08:21.813Z,2.27
2023-03-04T04:13:26.380Z,2.30
2023-03-04T04:18:29.398Z,2.80
2023-03-04T04:23:32.659Z,3.37
2023-03-04T04:28:36.994Z,3.50
2023-03-04T04:33:40.157Z,4.23
2023-03-04T04:38:43.397Z,2.90
2023-03-04T04:43:48.238Z,2.90
2023-03-04T04:48:51.355Z,2.90
2023-03-04T04:53:54.335Z,2.53
2023-03-04T04:59:00.744Z,2.40
2023-03-04T05:04:06.333Z,2.47
2023-03-04T05:09:09.397Z,2.33
2023-03-04T05:14:13.751Z,2.30
2023-03-04T05:19:16.901Z,2.77
2023-03-04T05:24:20.040Z,2.73
2023-03-04T05:29:24.739Z,2.03
2023-03-04T05:34:27.857Z,2.47
2023-03-04T05:39:30.820Z,2.27
2023-03-04T05:44:36.310Z,1.97
2023-03-04T05:49:39.336Z,3.03
2023-03-04T05:54:42.324Z,3.33
2023-03-04T05:59:46.705Z,2.73
2023-03-04T06:04:49.707Z,4.90
2023-03-04T06:09:52.835Z,2.40
2023-03-04T06:14:57.212Z,2.73
2023-03-04T06:20:00.260Z,2.20
2023-03-04T06:25:04.992Z,2.10
2023-03-04T06:30:11.299Z,2.50
2023-03-04T06:35:15.355Z,2.47
2023-03-04T06:40:18.323Z,2.23
2023-03-04T06:45:22.738Z,2.30
2023-03-04T06:50:25.885Z,2.20
2023-03-04T06:55:28.890Z,2.40
2023-03-04T07:00:33.720Z,2.23
2023-03-04T07:05:36.802Z,2.93
2023-03-04T07:10:39.876Z,2.50
2023-03-04T07:15:44.375Z,2.67
2023-03-04T07:20:47.330Z,2.37
2023-03-04T07:25:51.656Z,2.40
2023-03-04T07:30:56.045Z,2.70
2023-03-04T07:36:02.065Z,2.20
2023-03-04T07:41:06.765Z,3.63
2023-03-04T07:46:11.751Z,3.33
2023-03-04T07:51:17.263Z,2.87
2023-03-04T07:56:22.574Z,3.13
2023-03-04T08:01:30.894Z,4.13
2023-03-04T08:06:34.341Z,3.30
2023-03-04T08:11:39.026Z,2.90
2023-03-04T08:16:43.412Z,3.53
2023-03-04T08:21:46.515Z,3.40
2023-03-04T08:26:51.419Z,2.37
2023-03-04T08:31:56.727Z,2.03
2023-03-04T08:36:59.919Z,2.40
2023-03-04T08:42:05.573Z,2.40
2023-03-04T08:47:10.473Z,2.20
2023-03-04T08:52:13.707Z,2.13
2023-03-04T08:57:16.711Z,1.77
2023-03-04T09:02:26.697Z,2.07
2023-03-04T09:07:29.811Z,4.53
2023-03-04T09:12:34.429Z,1.20
2023-03-04T09:17:38.842Z,1.30
2023-03-04T09:22:42.989Z,1.43
2023-03-04T09:27:46.009Z,1.40
2023-03-04T09:32:50.798Z,1.60
2023-03-04T09:37:54.417Z,2.03
2023-03-04T09:43:00.576Z,1.57
2023-03-04T09:48:08.213Z,1.80
2023-03-04T09:53:22.314Z,1.80
2023-03-04T09:58:40.923Z,2.07
2023-03-04T10:03:51.133Z,1.97
2023-03-04T10:09:00.375Z,1.90
2023-03-04T10:14:21.945Z,1.70
2023-03-04T10:19:37.741Z,1.70
2023-03-04T10:24:40.928Z,1.67
2023-03-04T10:29:44.363Z,1.57
2023-03-04T10:34:49.160Z,1.80
2023-03-04T10:39:52.608Z,1.90
2023-03-04T10:44:57.404Z,2.03
2023-03-04T10:50:07.624Z,2.50
2023-03-04T10:55:17.751Z,1.87
2023-03-04T11:00:32.177Z,2.07
2023-03-04T11:05:36.561Z,1.93
2023-03-04T11:10:41.989Z,2.03
2023-03-04T11:15:55.572Z,1.50
2023-03-04T11:21:04.350Z,1.50
2023-03-04T11:26:11.568Z,1.30
2023-03-04T11:31:18.994Z,1.80
2023-03-04T11:36:34.356Z,1.47
2023-03-04T11:41:41.039Z,1.40
2023-03-04T11:47:01.244Z,1.40
2023-03-04T11:52:15.100Z,1.50
2023-03-04T11:57:30.687Z,1.60
2023-03-04T12:02:41.428Z,1.90
2023-03-04T12:07:54.733Z,1.90
2023-03-04T12:13:16.336Z,1.70
2023-03-04T12:18:35.553Z,2.20
2023-03-04T12:24:06.432Z,1.60
2023-03-04T12:29:17.044Z,1.03
2023-03-04T12:34:39.321Z,1.30
2023-03-04T12:39:55.578Z,2.00
2023-03-04T12:45:10.611Z,2.23
2023-03-04T12:50:28.773Z,2.00
2023-03-04T12:55:38.285Z,1.57
2023-03-04T13:00:50.439Z,1.13
2023-03-04T13:06:16.161Z,1.30
2023-03-04T13:11:47.390Z,1.30
2023-03-04T13:16:52.253Z,1.50
2023-03-04T13:21:55.627Z,1.27
2023-03-04T13:27:00.009Z,1.83
2023-03-04T13:32:07.932Z,2.37
2023-03-04T13:37:29.570Z,1.90
2023-03-04T13:42:42.072Z,1.93
2023-03-04T13:47:49.561Z,2.73
2023-03-04T13:52:53.206Z,1.67
2023-03-04T13:57:57.770Z,1.80
2023-03-04T14:03:14.619Z,1.70
2023-03-04T14:08:21.236Z,2.07
2023-03-04T14:13:26.382Z,2.17
2023-03-04T14:18:29.850Z,2.60
2023-03-04T14:23:34.997Z,2.17
2023-03-04T14:28:46.374Z,1.83
2023-03-04T14:33:52.171Z,1.83
2023-03-04T14:38:58.900Z,1.90
2023-03-04T14:44:12.700Z,3.57
2023-03-04T14:49:16.845Z,3.00
2023-03-04T14:54:33.519Z,3.23
2023-03-04T14:59:38.143Z,3.47
2023-03-04T15:04:42.260Z,2.83
2023-03-04T15:09:52.136Z,2.80
2023-03-04T15:14:58.688Z,3.17
2023-03-04T15:20:05.631Z,2.33
2023-03-04T15:25:15.282Z,2.10
2023-03-04T15:30:24.094Z,2.20
2023-03-04T15:35:31.819Z,1.93
2023-03-04T15:40:38.984Z,2.50
2023-03-04T15:45:43.432Z,2.37
2023-03-04T15:50:49.498Z,2.80
2023-03-04T15:55:52.944Z,2.30
2023-03-04T16:00:57.448Z,2.27
2023-03-04T16:06:00.681Z,2.10
2023-03-04T16:11:05.796Z,2.80
2023-03-04T16:16:13.239Z,2.73
2023-03-04T16:21:20.481Z,2.30
2023-03-04T16:26:28.225Z,3.20
2023-03-04T16:31:32.651Z,3.97
2023-03-04T16:36:37.011Z,4.60
2023-03-04T16:41:40.110Z,3.10
2023-03-04T16:46:44.545Z,2.73
2023-03-04T16:51:50.906Z,2.20
2023-03-04T16:56:53.928Z,2.87
2023-03-04T17:01:58.868Z,2.00
2023-03-04T17:07:03.542Z,1.77
2023-03-04T17:12:07.453Z,1.97
2023-03-04T17:17:12.662Z,2.10
2023-03-04T17:22:20.504Z,2.50
2023-03-04T17:27:23.651Z,2.40
2023-03-04T17:32:29.700Z,1.80
2023-03-04T17:37:33.144Z,1.90
2023-03-04T17:42:36.259Z,1.70
2023-03-04T17:47:40.669Z,1.73
2023-03-04T17:52:43.918Z,1.33
2023-03-04T17:57:46.938Z,1.50
2023-03-04T18:02:51.665Z,1.70
2023-03-04T18:07:54.962Z,1.67
2023-03-04T18:12:58.025Z,1.80
2023-03-04T18:18:04.916Z,2.20
2023-03-04T18:23:08.323Z,1.80
2023-03-04T18:28:11.453Z,2.00
2023-03-04T18:33:15.793Z,1.60
2023-03-04T18:38:18.882Z,1.60
2023-03-04T18:43:21.863Z,2.30
2023-03-04T18:48:26.572Z,1.40
2023-03-04T18:53:33.531Z,1.80
2023-03-04T18:58:39.238Z,1.70
2023-03-04T19:03:44.635Z,1.97
2023-03-04T19:08:50.839Z,1.93
2023-03-04T19:13:54.024Z,1.80
2023-03-04T19:19:01.452Z,2.07
2023-03-04T19:24:05.485Z,1.90
2023-03-04T19:29:08.458Z,1.93
2023-03-04T19:34:13.268Z,2.33
2023-03-04T19:39:18.469Z,1.90
2023-03-04T19:44:21.546Z,2.50
2023-03-04T19:49:26.070Z,2.10
2023-03-04T19:54:29.188Z,2.20
2023-03-04T19:59:32.344Z,2.07
2023-03-04T20:04:37.121Z,2.17
2023-03-04T20:09:40.251Z,2.73
2023-03-04T20:14:43.509Z,2.37
2023-03-04T20:19:47.867Z,2.73
2023-03-04T20:24:51.121Z,3.20
2023-03-04T20:29:55.146Z,2.53
2023-03-04T20:34:59.584Z,2.23
2023-03-04T20:40:04.078Z,2.83
2023-03-04T20:45:09.894Z,2.57
2023-03-04T20:50:14.281Z,2.00
2023-03-04T20:55:18.426Z,1.80
2023-03-04T21:00:22.133Z,2.47
2023-03-04T21:05:26.651Z,3.20
2023-03-04T21:10:29.897Z,2.47
2023-03-04T21:15:32.958Z,2.67
2023-03-04T21:20:37.590Z,2.73
2023-03-04T21:25:41.537Z,2.30
2023-03-04T21:30:44.588Z,2.40
2023-03-04T21:35:50.196Z,2.10
2023-03-04T21:40:53.950Z,2.30
2023-03-04T21:45:57.930Z,2.50
2023-03-04T21:51:04.875Z,2.20
2023-03-04T21:56:08.152Z,2.40
2023-03-04T22:01:11.994Z,3.50
2023-03-04T22:06:21.754Z,2.83
2023-03-04T22:11:25.542Z,2.23
2023-03-04T22:16:29.266Z,3.90
2023-03-04T22:21:34.148Z,2.67
2023-03-04T22:26:37.999Z,3.97
2023-03-04T22:31:41.439Z,3.10
2023-03-04T22:36:48.854Z,2.63
2023-03-04T22:41:52.036Z,2.80
2023-03-04T22:46:55.390Z,2.67
2023-03-04T22:52:00.151Z,2.80
2023-03-04T22:57:06.238Z,3.57
2023-03-04T23:02:09.389Z,2.83
2023-03-04T23:07:14.102Z,2.87
2023-03-04T23:12:19.062Z,2.87
2023-03-04T23:17:22.186Z,2.83
2023-03-04T23:22:26.939Z,3.07
2023-03-04T23:27:30.207Z,3.70
2023-03-04T23:32:33.410Z,3.00
2023-03-04T23:37:37.901Z,3.23
2023-03-04T23:42:40.996Z,2.70
2023-03-04T23:47:44.129Z,3.33
2023-03-04T23:52:49.774Z,3.07
2023-03-04T23:57:53.011Z,3.03
